Terminal Aerodrome Forecast
Issued by NWS

Home | Current Version | Previous Version | Text Only | Print | Product List | Glossary On
Versions: 1 2 3 4 5 6 7 8 9 10 11 12 13 14 15 16 17 18 19 20 21
513
FTUS43 KDVN 120129 AAA
TAFCID
TAF AMD
KCID 120129Z 1201/1224 21005KT P6SM SCT050 OVC080
     FM120400 28009KT 6SM -SN OVC035
     FM121100 30013KT P6SM BKN050
     FM121600 30020G30KT P6SM BKN035=

USA.gov is the U.S. government's official web portal to all federal, state and local government web resources and services.